createdAt,value
2019-05-22T00:02:22.318Z,65.00
2019-05-22T00:05:13.866Z,69.47
2019-05-22T00:07:49.602Z,91.87
2019-05-22T00:10:26.754Z,106.78
2019-05-22T00:13:00.298Z,64.37
2019-05-22T00:15:34.392Z,80.50
2019-05-22T00:18:10.597Z,91.40
2019-05-22T00:20:45.474Z,57.25
2019-05-22T00:23:20.295Z,62.62
2019-05-22T00:25:54.770Z,84.70
2019-05-22T00:31:01.779Z,60.83
2019-05-22T00:33:36.417Z,59.53
2019-05-22T00:36:11.340Z,73.02
2019-05-22T00:38:46.694Z,68.35
2019-05-22T00:41:22.665Z,68.30
2019-05-22T00:43:58.706Z,59.10
2019-05-22T00:46:31.287Z,51.92
2019-05-22T00:49:05.517Z,103.17
2019-05-22T00:51:44.529Z,59.23
2019-05-22T00:54:25.300Z,78.42
2019-05-22T00:56:59.341Z,66.40
2019-05-22T01:02:13.772Z,56.83
2019-05-22T01:04:48.721Z,71.88
2019-05-22T01:07:22.848Z,80.67
2019-05-22T01:09:59.043Z,118.80
2019-05-22T01:12:33.479Z,88.87
2019-05-22T01:15:12.279Z,103.40
2019-05-22T01:20:19.786Z,60.20
2019-05-22T01:22:54.286Z,73.37
2019-05-22T01:25:29.391Z,69.60
2019-05-22T01:30:00.816Z,94.72
2019-05-22T01:32:40.499Z,62.55
2019-05-22T01:37:48.734Z,77.57
2019-05-22T01:40:30.298Z,90.38
2019-05-22T01:43:09.315Z,91.97
2019-05-22T01:45:44.330Z,111.75
2019-05-22T01:48:27.766Z,72.55
2019-05-22T01:51:01.932Z,85.90
2019-05-22T01:53:39.363Z,138.92
2019-05-22T01:56:13.901Z,99.20
2019-05-22T01:58:47.621Z,136.70
2019-05-22T02:01:22.443Z,115.12
2019-05-22T02:03:56.616Z,167.10
2019-05-22T02:06:30.754Z,176.32
2019-05-22T02:09:18.562Z,159.97
2019-05-22T02:11:57.323Z,103.50
2019-05-22T02:14:30.823Z,92.60
2019-05-22T02:17:06.294Z,74.55
2019-05-22T02:19:39.214Z,86.97
2019-05-22T02:22:13.578Z,65.87
2019-05-22T02:24:49.311Z,98.44
2019-05-22T02:29:55.765Z,78.13
2019-05-22T02:32:29.659Z,105.20
2019-05-22T02:37:36.586Z,96.67
2019-05-22T02:40:24.803Z,116.88
2019-05-22T02:42:58.283Z,105.57
2019-05-22T02:45:34.411Z,139.43
2019-05-22T02:48:09.741Z,144.93
2019-05-22T02:50:42.608Z,160.60
2019-05-22T02:53:17.291Z,138.25
2019-05-22T02:55:51.281Z,151.60
2019-05-22T02:58:24.648Z,174.32
2019-05-22T03:01:06.837Z,93.90
2019-05-22T03:03:39.640Z,117.53
2019-05-22T03:06:17.499Z,117.50
2019-05-22T03:09:12.137Z,145.75
2019-05-22T03:12:02.653Z,135.20
2019-05-22T03:14:36.378Z,132.10
2019-05-22T03:17:15.570Z,123.35
2019-05-22T03:19:48.038Z,117.50
2019-05-22T03:23:08.464Z,125.92
2019-05-22T03:25:44.375Z,111.14
2019-05-22T03:28:17.609Z,110.86
2019-05-22T03:30:52.282Z,93.03
2019-05-22T03:33:25.436Z,111.52
2019-05-22T03:36:15.984Z,102.37
2019-05-22T03:38:49.590Z,90.15
2019-05-22T03:41:24.332Z,72.70
2019-05-22T03:43:58.844Z,66.40
2019-05-22T03:46:37.569Z,69.12
2019-05-22T03:49:29.307Z,73.83
2019-05-22T03:51:52.807Z,61.00
2019-05-22T03:54:26.821Z,66.60
2019-05-22T03:57:00.309Z,64.15
2019-05-22T04:02:06.422Z,66.22
2019-05-22T04:04:42.650Z,75.05
2019-05-22T04:07:17.342Z,72.32
2019-05-22T04:09:52.327Z,71.27
2019-05-22T04:12:27.237Z,66.50
2019-05-22T04:15:00.624Z,69.50
2019-05-22T04:17:36.423Z,72.47
2019-05-22T04:22:44.277Z,66.42
2019-05-22T04:25:17.589Z,64.95
2019-05-22T04:27:51.563Z,64.95
2019-05-22T04:30:26.039Z,65.87
2019-05-22T04:38:19.929Z,63.73
2019-05-22T04:43:00.342Z,74.87
2019-05-22T04:45:32.813Z,66.97
2019-05-22T04:48:06.774Z,71.40
2019-05-22T04:50:40.328Z,65.52
2019-05-22T04:53:13.384Z,73.42
2019-05-22T04:55:46.299Z,72.32
2019-05-22T04:58:21.737Z,68.47
2019-05-22T05:03:44.947Z,54.55
2019-05-22T05:06:19.002Z,56.65
2019-05-22T05:08:52.632Z,60.43
2019-05-22T05:11:26.746Z,50.17
2019-05-22T05:13:59.321Z,56.28
2019-05-22T05:16:31.722Z,47.98
2019-05-22T05:19:05.741Z,52.83
2019-05-22T05:21:40.303Z,46.10
2019-05-22T05:24:13.661Z,45.85
2019-05-22T05:26:46.741Z,44.65
2019-05-22T05:29:33.659Z,51.08
2019-05-22T05:32:08.050Z,46.60
2019-05-22T05:34:55.524Z,47.85
2019-05-22T05:37:28.802Z,44.80
2019-05-22T05:40:10.287Z,40.25
2019-05-22T05:42:43.453Z,42.23
2019-05-22T05:45:16.508Z,43.68
2019-05-22T05:47:49.289Z,45.70
2019-05-22T05:50:37.847Z,48.57
2019-05-22T05:54:23.790Z,39.00
2019-05-22T05:57:19.336Z,40.00
2019-05-22T05:59:52.051Z,45.13
2019-05-22T06:02:25.661Z,37.25
2019-05-22T06:04:58.281Z,35.73
2019-05-22T06:07:30.794Z,38.30
2019-05-22T06:10:38.520Z,32.73
2019-05-22T06:13:13.297Z,32.93
2019-05-22T06:15:57.350Z,37.50
2019-05-22T06:21:12.288Z,40.28
2019-05-22T06:24:06.676Z,31.05
2019-05-22T06:26:51.697Z,35.68
2019-05-22T06:29:28.265Z,32.33
2019-05-22T06:32:13.287Z,31.48
2019-05-22T06:36:55.300Z,30.27
2019-05-22T06:39:28.018Z,28.15
2019-05-22T06:42:00.579Z,29.52
2019-05-22T06:44:37.876Z,28.87
2019-05-22T06:47:15.289Z,27.05
2019-05-22T06:49:49.527Z,28.42
2019-05-22T06:52:22.264Z,30.48
2019-05-22T06:54:55.594Z,32.17
2019-05-22T06:57:29.834Z,30.15
2019-05-22T07:00:14.335Z,25.48
2019-05-22T07:02:45.109Z,27.98
2019-05-22T07:05:20.660Z,26.95
2019-05-22T07:07:53.300Z,23.77
2019-05-22T07:10:26.349Z,26.97
2019-05-22T07:13:01.291Z,30.00
2019-05-22T07:15:37.738Z,23.87
2019-05-22T07:18:13.404Z,25.30
2019-05-22T07:20:49.588Z,28.07
2019-05-22T07:23:25.018Z,25.32
2019-05-22T07:25:58.841Z,27.35
2019-05-22T07:28:31.409Z,24.15
2019-05-22T07:31:07.389Z,24.20
2019-05-22T07:33:39.842Z,24.85
2019-05-22T07:36:16.627Z,24.57
2019-05-22T07:38:47.845Z,25.00
2019-05-22T07:42:08.291Z,28.60
2019-05-22T07:44:41.293Z,23.42
2019-05-22T07:47:17.406Z,21.75
2019-05-22T07:49:49.778Z,26.45
2019-05-22T07:52:23.318Z,21.55
2019-05-22T07:54:56.288Z,22.00
2019-05-22T07:57:30.259Z,27.20
2019-05-22T08:00:03.326Z,23.10
2019-05-22T08:02:50.894Z,21.30
2019-05-22T08:05:25.892Z,20.88
2019-05-22T08:07:58.286Z,23.30
2019-05-22T08:10:30.731Z,17.35
2019-05-22T08:13:03.615Z,20.80
2019-05-22T08:15:36.447Z,18.32
2019-05-22T08:18:09.838Z,23.57
2019-05-22T08:20:42.746Z,19.80
2019-05-22T08:23:16.118Z,22.07
2019-05-22T08:25:49.286Z,17.75
2019-05-22T08:28:22.696Z,20.52
2019-05-22T08:30:56.506Z,19.05
2019-05-22T08:36:01.533Z,17.45
2019-05-22T08:41:11.288Z,17.70
2019-05-22T08:44:15.450Z,20.14
2019-05-22T08:46:21.730Z,21.42
2019-05-22T08:48:55.755Z,18.82
2019-05-22T08:51:28.252Z,17.37
2019-05-22T08:54:05.834Z,19.50
2019-05-22T08:56:44.867Z,14.30
2019-05-22T08:59:19.906Z,14.85
2019-05-22T09:01:59.283Z,17.67
2019-05-22T09:04:31.761Z,17.73
2019-05-22T09:07:04.577Z,16.05
2019-05-22T09:09:37.276Z,16.50
2019-05-22T09:12:11.603Z,17.92
2019-05-22T09:14:45.808Z,15.70
2019-05-22T09:17:19.688Z,14.45
2019-05-22T09:19:53.282Z,11.70
2019-05-22T09:22:39.502Z,13.73
2019-05-22T09:25:01.386Z,12.10
2019-05-22T09:27:33.979Z,11.43
2019-05-22T09:30:11.299Z,11.08
2019-05-22T09:32:47.561Z,12.37
2019-05-22T09:35:20.248Z,10.80
2019-05-22T09:37:52.519Z,12.73
2019-05-22T09:40:25.416Z,9.63
2019-05-22T09:42:58.352Z,13.83
2019-05-22T09:45:32.115Z,10.82
2019-05-22T09:48:08.297Z,11.57
2019-05-22T09:50:40.886Z,8.30
2019-05-22T09:53:13.851Z,12.60
2019-05-22T09:55:47.755Z,11.80
2019-05-22T09:58:23.774Z,13.54
2019-05-22T10:00:56.755Z,14.43
2019-05-22T10:03:29.634Z,15.63
2019-05-22T10:06:03.102Z,9.15
2019-05-22T10:08:36.610Z,13.35
2019-05-22T10:11:09.312Z,11.53
2019-05-22T10:15:57.263Z,14.13
2019-05-22T10:18:29.779Z,14.87
2019-05-22T10:21:02.358Z,9.80
2019-05-22T10:23:35.280Z,11.08
2019-05-22T10:26:08.794Z,12.78
2019-05-22T10:28:43.727Z,9.98
2019-05-22T10:31:17.916Z,13.18
2019-05-22T10:33:52.090Z,9.82
2019-05-22T10:36:24.812Z,8.55
2019-05-22T10:38:58.721Z,9.03
2019-05-22T10:41:31.426Z,11.85
2019-05-22T10:44:05.606Z,10.80
2019-05-22T10:46:38.316Z,10.45
2019-05-22T10:49:10.768Z,13.77
2019-05-22T10:51:43.295Z,8.50
2019-05-22T10:56:52.142Z,8.46
2019-05-22T11:01:58.332Z,7.97
2019-05-22T11:04:32.307Z,11.95
2019-05-22T11:07:07.410Z,9.35
2019-05-22T11:09:40.701Z,8.30
2019-05-22T11:12:14.595Z,7.45
2019-05-22T11:14:49.485Z,7.28
2019-05-22T11:17:21.842Z,7.30
2019-05-22T11:19:55.303Z,11.33
2019-05-22T11:22:28.314Z,7.35
2019-05-22T11:25:01.458Z,8.75
2019-05-22T11:27:34.309Z,8.35
2019-05-22T11:30:11.847Z,9.63
2019-05-22T11:35:20.799Z,7.80
2019-05-22T11:37:53.334Z,6.47
2019-05-22T11:40:26.566Z,8.83
2019-05-22T11:42:59.673Z,8.75
2019-05-22T11:45:34.685Z,10.60
2019-05-22T11:48:07.686Z,8.48
2019-05-22T11:50:44.334Z,10.23
2019-05-22T11:54:07.969Z,7.75
2019-05-22T11:56:32.279Z,8.55
2019-05-22T11:59:06.419Z,9.25
2019-05-22T12:01:40.016Z,10.82
2019-05-22T12:04:13.404Z,8.98
2019-05-22T12:06:47.443Z,10.53
2019-05-22T12:09:19.768Z,8.68
2019-05-22T12:11:52.880Z,6.33
2019-05-22T12:14:25.339Z,7.12
2019-05-22T12:16:58.266Z,9.23
2019-05-22T12:19:30.866Z,6.70
2019-05-22T12:22:03.309Z,6.30
2019-05-22T12:24:37.217Z,4.00
2019-05-22T12:27:11.317Z,5.00
2019-05-22T12:29:46.393Z,4.28
2019-05-22T12:32:19.362Z,3.50
2019-05-22T12:34:52.286Z,7.27
2019-05-22T12:37:25.288Z,4.20
2019-05-22T12:39:58.279Z,6.60
2019-05-22T12:42:31.324Z,6.03
2019-05-22T12:45:04.554Z,5.75
2019-05-22T12:47:37.396Z,9.93
2019-05-22T12:50:11.993Z,5.20
2019-05-22T12:52:49.620Z,6.15
2019-05-22T12:55:22.645Z,10.90
2019-05-22T12:57:55.506Z,5.53
2019-05-22T13:00:29.656Z,4.97
2019-05-22T13:03:05.310Z,4.45
2019-05-22T13:05:43.046Z,5.85
2019-05-22T13:08:19.364Z,6.33
2019-05-22T13:10:53.298Z,4.34
2019-05-22T13:13:25.483Z,5.60
2019-05-22T13:26:12.474Z,4.27
2019-05-22T13:28:50.477Z,4.40
2019-05-22T13:31:24.040Z,30.05
2019-05-22T13:33:58.034Z,4.83
2019-05-22T13:36:31.295Z,4.55
2019-05-22T13:39:06.078Z,4.60
2019-05-22T13:41:39.261Z,5.42
2019-05-22T13:44:13.616Z,5.80
2019-05-22T13:46:49.614Z,44.12
2019-05-22T13:49:23.301Z,21.12
2019-05-22T13:51:55.652Z,20.97
2019-05-22T13:54:28.403Z,16.10
2019-05-22T13:57:01.325Z,3.47
2019-05-22T13:59:34.338Z,6.35
2019-05-22T14:02:07.441Z,39.67
2019-05-22T14:04:40.713Z,41.42
2019-05-22T14:07:14.346Z,29.32
2019-05-22T14:09:47.799Z,13.83
2019-05-22T14:12:20.600Z,14.70
2019-05-22T14:14:56.436Z,10.90
2019-05-22T14:17:29.299Z,5.50
2019-05-22T14:20:02.283Z,6.37
2019-05-22T14:22:37.650Z,3.15
2019-05-22T14:25:10.852Z,4.72
2019-05-22T14:27:43.475Z,2.65
2019-05-22T14:30:20.296Z,6.92
2019-05-22T14:32:52.625Z,2.88
2019-05-22T14:35:32.911Z,3.77
2019-05-22T14:38:03.028Z,4.33
2019-05-22T14:40:36.376Z,2.75
2019-05-22T14:43:09.456Z,3.42
2019-05-22T14:45:43.308Z,4.28
2019-05-22T14:48:16.441Z,3.20
2019-05-22T14:50:50.022Z,1.65
2019-05-22T14:53:24.289Z,6.24
2019-05-22T14:55:57.017Z,2.98
2019-05-22T14:58:30.290Z,2.20
2019-05-22T15:01:03.346Z,3.83
2019-05-22T15:03:39.285Z,4.53
2019-05-22T15:06:12.337Z,2.47
2019-05-22T15:08:44.698Z,3.33
2019-05-22T15:11:18.707Z,3.37
2019-05-22T15:13:51.339Z,4.30
2019-05-22T15:18:56.192Z,7.17
2019-05-22T15:24:01.331Z,4.85
2019-05-22T15:26:33.900Z,4.37
2019-05-22T15:29:07.355Z,4.05
2019-05-22T15:31:39.677Z,3.27
2019-05-22T15:34:13.750Z,3.23
2019-05-22T15:36:47.447Z,5.47
2019-05-22T15:39:25.853Z,3.90
2019-05-22T15:44:31.100Z,2.42
2019-05-22T15:47:03.984Z,2.58
2019-05-22T15:49:38.965Z,3.58
2019-05-22T15:52:16.661Z,2.42
2019-05-22T15:54:50.911Z,2.45
2019-05-22T15:57:24.289Z,4.92
2019-05-22T15:59:58.343Z,2.95
2019-05-22T16:02:34.291Z,2.87
2019-05-22T16:05:09.754Z,3.50
2019-05-22T16:07:43.310Z,5.25
2019-05-22T16:10:19.582Z,4.95
2019-05-22T16:12:54.677Z,5.10
2019-05-22T16:15:30.664Z,7.35
2019-05-22T16:18:11.804Z,5.87
2019-05-22T16:20:42.844Z,6.45
2019-05-22T16:23:15.753Z,3.72
2019-05-22T16:25:49.470Z,3.98
2019-05-22T16:28:25.318Z,3.83
2019-05-22T16:31:01.301Z,4.40
2019-05-22T16:33:35.462Z,4.53
2019-05-22T16:36:10.296Z,4.90
2019-05-22T16:38:45.798Z,4.78
2019-05-22T16:41:21.311Z,5.40
2019-05-22T16:43:54.324Z,3.63
2019-05-22T16:46:28.308Z,3.22
2019-05-22T16:49:00.924Z,4.15
2019-05-22T16:51:33.659Z,4.30
2019-05-22T16:54:11.688Z,4.22
2019-05-22T16:56:44.302Z,5.27
2019-05-22T16:59:21.304Z,10.94
2019-05-22T17:01:59.445Z,4.67
2019-05-22T17:04:29.707Z,3.85
2019-05-22T17:07:04.744Z,3.58
2019-05-22T17:09:43.551Z,4.78
2019-05-22T17:12:19.682Z,3.67
2019-05-22T17:14:53.285Z,3.85
2019-05-22T17:17:26.320Z,4.33
2019-05-22T17:19:59.336Z,11.93
2019-05-22T17:22:32.311Z,3.75
2019-05-22T17:25:06.303Z,3.77
2019-05-22T17:27:39.507Z,4.22
2019-05-22T17:30:20.460Z,3.27
2019-05-22T17:32:50.754Z,5.22
2019-05-22T17:35:24.801Z,5.22
2019-05-22T17:40:32.866Z,4.22
2019-05-22T17:43:07.323Z,3.60
2019-05-22T17:45:42.307Z,4.03
2019-05-22T17:48:16.666Z,3.50
2019-05-22T17:50:50.308Z,6.65
2019-05-22T17:53:23.064Z,5.97
2019-05-22T17:55:55.999Z,6.70
2019-05-22T17:58:30.060Z,6.80
2019-05-22T18:01:19.909Z,8.10
2019-05-22T18:04:02.305Z,5.42
2019-05-22T18:06:35.169Z,5.22
2019-05-22T18:09:11.424Z,5.58
2019-05-22T18:11:44.315Z,5.97
2019-05-22T18:14:16.973Z,4.47
2019-05-22T18:16:49.544Z,4.42
2019-05-22T18:19:23.030Z,4.87
2019-05-22T18:21:57.421Z,4.03
2019-05-22T18:24:30.331Z,7.03
2019-05-22T18:27:02.530Z,4.35
2019-05-22T18:29:35.296Z,7.50
2019-05-22T18:32:09.076Z,5.53
2019-05-22T18:34:42.291Z,5.10
2019-05-22T18:37:14.749Z,6.87
2019-05-22T18:39:47.292Z,5.17
2019-05-22T18:42:20.288Z,4.97
2019-05-22T18:44:53.669Z,7.40
2019-05-22T18:47:27.529Z,4.70
2019-05-22T18:50:00.395Z,5.70
2019-05-22T18:52:40.881Z,6.62
2019-05-22T18:55:09.330Z,5.60
2019-05-22T18:57:42.310Z,7.78
2019-05-22T19:00:20.029Z,5.15
2019-05-22T19:02:52.994Z,5.17
2019-05-22T19:05:30.053Z,10.28
2019-05-22T19:08:06.162Z,5.37
2019-05-22T19:10:40.633Z,5.22
2019-05-22T19:13:16.550Z,6.40
2019-05-22T19:15:50.905Z,8.20
2019-05-22T19:18:23.321Z,6.12
2019-05-22T19:20:58.300Z,4.92
2019-05-22T19:23:30.754Z,8.20
2019-05-22T19:26:05.706Z,9.40
2019-05-22T19:28:44.022Z,8.40
2019-05-22T19:31:12.690Z,7.12
2019-05-22T19:36:19.826Z,7.84
2019-05-22T19:41:31.288Z,8.45
2019-05-22T19:44:03.733Z,9.93
2019-05-22T19:46:36.315Z,7.45
2019-05-22T19:49:09.310Z,10.23
2019-05-22T19:51:44.529Z,9.65
2019-05-22T19:54:17.158Z,8.90
2019-05-22T19:56:51.308Z,12.07
2019-05-22T19:59:24.347Z,8.98
2019-05-22T20:01:56.818Z,9.38
2019-05-22T20:04:30.041Z,9.38
2019-05-22T20:07:04.509Z,10.90
2019-05-22T20:09:40.390Z,11.20
2019-05-22T20:12:14.518Z,9.28
2019-05-22T20:14:47.420Z,9.55
2019-05-22T20:17:20.783Z,9.96
2019-05-22T20:19:54.068Z,11.45
2019-05-22T20:22:27.641Z,10.40
2019-05-22T20:25:01.703Z,11.40
2019-05-22T20:27:35.750Z,10.80
2019-05-22T20:30:13.298Z,16.42
2019-05-22T20:32:45.861Z,11.05
2019-05-22T20:35:19.303Z,12.60
2019-05-22T20:37:52.329Z,11.88
2019-05-22T20:40:27.154Z,16.24
2019-05-22T20:43:00.731Z,13.90
2019-05-22T20:45:33.741Z,15.43
2019-05-22T20:48:15.310Z,14.80
2019-05-22T20:50:48.299Z,14.70
2019-05-22T20:53:22.658Z,14.75
2019-05-22T20:55:56.324Z,13.78
2019-05-22T20:58:31.023Z,13.03
2019-05-22T21:01:04.026Z,17.40
2019-05-22T21:03:37.308Z,17.17
2019-05-22T21:06:16.327Z,15.40
2019-05-22T21:08:50.736Z,14.07
2019-05-22T21:11:27.838Z,15.53
2019-05-22T21:14:00.622Z,12.82
2019-05-22T21:16:34.637Z,14.13
2019-05-22T21:19:09.832Z,14.55
2019-05-22T21:21:42.816Z,14.65
2019-05-22T21:26:51.445Z,19.98
2019-05-22T21:29:24.659Z,15.93
2019-05-22T21:31:57.396Z,16.05
2019-05-22T21:34:30.309Z,20.52
2019-05-22T21:37:03.311Z,16.57
2019-05-22T21:43:38.350Z,17.50
2019-05-22T21:46:11.387Z,19.65
2019-05-22T21:48:45.369Z,16.60
2019-05-22T21:51:17.802Z,19.27
2019-05-22T21:53:54.687Z,18.78
2019-05-22T21:56:27.773Z,21.73
2019-05-22T21:59:00.318Z,15.80
2019-05-22T22:01:35.658Z,23.98
2019-05-22T22:04:10.900Z,18.55
2019-05-22T22:06:45.015Z,19.52
2019-05-22T22:09:18.989Z,18.52
2019-05-22T22:11:51.580Z,19.30
2019-05-22T22:14:27.317Z,20.88
2019-05-22T22:17:03.088Z,23.57
2019-05-22T22:19:35.843Z,19.25
2019-05-22T22:22:17.743Z,21.25
2019-05-22T22:24:53.400Z,18.52
2019-05-22T22:27:26.696Z,18.94
2019-05-22T22:30:00.625Z,18.25
2019-05-22T22:32:35.464Z,20.73
2019-05-22T22:35:21.843Z,22.30
2019-05-22T22:37:55.423Z,20.27
2019-05-22T22:40:30.374Z,20.23
2019-05-22T22:43:06.391Z,21.27
2019-05-22T22:45:44.446Z,17.92
2019-05-22T22:48:32.360Z,21.57
2019-05-22T22:51:10.276Z,19.60
2019-05-22T22:53:46.048Z,19.95
2019-05-22T22:56:19.878Z,25.27
2019-05-22T22:58:53.318Z,24.20
2019-05-22T23:01:34.317Z,24.65
2019-05-22T23:04:10.879Z,20.25
2019-05-22T23:06:44.219Z,21.73
2019-05-22T23:09:18.666Z,24.72
2019-05-22T23:11:53.336Z,21.86
2019-05-22T23:14:27.975Z,21.65
2019-05-22T23:17:01.289Z,23.67
2019-05-22T23:19:35.648Z,23.38
2019-05-22T23:22:06.281Z,23.05
2019-05-22T23:24:40.777Z,27.03
2019-05-22T23:27:14.274Z,27.27
2019-05-22T23:29:47.398Z,23.85
2019-05-22T23:32:21.792Z,23.15
2019-05-22T23:34:55.436Z,25.17
2019-05-22T23:37:30.306Z,25.10
2019-05-22T23:40:03.290Z,22.73
2019-05-22T23:42:42.007Z,28.67
2019-05-22T23:45:22.398Z,27.80
2019-05-22T23:48:08.384Z,24.75
2019-05-22T23:50:42.305Z,22.73
2019-05-22T23:53:16.630Z,23.80
2019-05-22T23:55:50.425Z,28.32
2019-05-22T23:58:25.761Z,24.90
